Time;durP1;ratioP1;P1;durP2;ratioP2;P2;SDS_P1;SDS_P2;PMS_P1;PMS_P2;Temp;Humidity;BMP_temperature;BMP_pressure;BME280_temperature;BME280_humidity;BME280_pressure;Samples;Min_cycle;Max_cycle;Signal;HPM_P1;HPM_P2
2023/07/22 00:00:16;;;;;;;14.23;6.63;;;;;;;;;;6212704;23;20013;-64
2023/07/22 00:02:43;;;;;;;14.25;6.80;;;;;;;;;;6212931;23;20012;-64
2023/07/22 00:05:11;;;;;;;13.35;6.80;;;;;;;;;;6213008;23;20027;-64
2023/07/22 00:07:37;;;;;;;12.00;6.97;;;;;;;;;;6212563;23;20040;-64
2023/07/22 00:10:03;;;;;;;13.55;6.80;;;;;;;;;;6212965;23;20017;-64
2023/07/22 00:12:30;;;;;;;12.95;7.15;;;;;;;;;;6213038;23;20091;-64
2023/07/22 00:14:56;;;;;;;13.02;6.97;;;;;;;;;;6212565;23;20145;-64
2023/07/22 00:17:24;;;;;;;14.05;7.38;;;;;;;;;;6212917;23;20016;-64
2023/07/22 00:19:50;;;;;;;13.88;7.18;;;;;;;;;;6212865;23;20016;-64
2023/07/22 00:22:16;;;;;;;17.60;7.30;;;;;;;;;;6212689;23;20012;-64
2023/07/22 00:24:42;;;;;;;15.07;7.30;;;;;;;;;;6212581;23;20352;-64
2023/07/22 00:27:09;;;;;;;13.63;7.15;;;;;;;;;;6212715;23;20462;-64
2023/07/22 00:29:35;;;;;;;13.57;7.55;;;;;;;;;;6212969;23;20013;-64
2023/07/22 00:32:01;;;;;;;13.18;7.43;;;;;;;;;;6211191;23;20164;-64
2023/07/22 00:34:27;;;;;;;13.15;7.00;;;;;;;;;;6210956;23;20387;-64
2023/07/22 00:36:53;;;;;;;15.27;7.43;;;;;;;;;;6210340;23;20096;-64
2023/07/22 00:39:20;;;;;;;14.63;7.80;;;;;;;;;;6210162;23;20017;-64
2023/07/22 00:41:46;;;;;;;14.43;7.60;;;;;;;;;;6210889;23;20052;-64
2023/07/22 00:44:12;;;;;;;14.73;7.95;;;;;;;;;;6211095;23;20107;-64
2023/07/22 00:46:38;;;;;;;17.65;7.45;;;;;;;;;;6210313;23;20020;-64
2023/07/22 00:49:08;;;;;;;14.70;7.60;;;;;;;;;;6211016;23;20440;-64
2023/07/22 00:51:34;;;;;;;16.00;7.63;;;;;;;;;;6211041;23;20020;-64
2023/07/22 00:54:00;;;;;;;18.13;8.05;;;;;;;;;;6210089;23;20048;-64
2023/07/22 00:56:26;;;;;;;13.65;7.85;;;;;;;;;;6210908;23;20024;-64
2023/07/22 00:58:52;;;;;;;17.88;8.35;;;;;;;;;;6210698;23;20027;-64
2023/07/22 01:01:18;;;;;;;21.35;8.52;;;;;;;;;;6210427;23;20332;-64
2023/07/22 01:03:46;;;;;;;16.30;8.45;;;;;;;;;;6210750;23;20008;-64
2023/07/22 01:06:12;;;;;;;14.60;8.00;;;;;;;;;;6210514;23;20096;-64
2023/07/22 01:08:39;;;;;;;15.32;8.18;;;;;;;;;;6210567;23;20019;-64
2023/07/22 01:11:06;;;;;;;14.30;7.90;;;;;;;;;;6210560;23;20294;-64
2023/07/22 01:13:32;;;;;;;13.25;7.70;;;;;;;;;;6209126;23;20095;-64
2023/07/22 01:15:58;;;;;;;16.15;8.45;;;;;;;;;;6210640;23;20371;-64
2023/07/22 01:18:24;;;;;;;15.95;8.18;;;;;;;;;;6210816;23;20066;-64
2023/07/22 01:20:50;;;;;;;15.63;8.30;;;;;;;;;;6210879;23;20556;-64
2023/07/22 01:23:16;;;;;;;15.82;7.88;;;;;;;;;;6210694;23;20012;-64
2023/07/22 01:25:43;;;;;;;14.68;7.50;;;;;;;;;;6210999;23;20411;-64
2023/07/22 01:28:12;;;;;;;14.77;8.00;;;;;;;;;;6210983;23;20023;-64
2023/07/22 01:30:38;;;;;;;15.93;7.38;;;;;;;;;;6210407;23;20016;-64
2023/07/22 01:33:04;;;;;;;15.00;8.20;;;;;;;;;;6210674;23;20052;-64
2023/07/22 01:35:30;;;;;;;15.48;8.07;;;;;;;;;;6210041;23;20464;-64
2023/07/22 01:37:55;;;;;;;17.00;7.80;;;;;;;;;;6210183;23;20025;-64
2023/07/22 01:40:23;;;;;;;13.45;8.15;;;;;;;;;;6210697;23;20383;-64
2023/07/22 01:42:49;;;;;;;14.25;8.23;;;;;;;;;;6210268;23;20070;-64
2023/07/22 01:45:15;;;;;;;16.90;8.63;;;;;;;;;;6210270;23;20382;-64
2023/07/22 01:47:41;;;;;;;14.88;7.90;;;;;;;;;;6210669;23;20096;-64
2023/07/22 01:50:07;;;;;;;15.70;8.23;;;;;;;;;;6210817;23;20012;-64
2023/07/22 01:52:33;;;;;;;17.23;8.48;;;;;;;;;;6210041;23;20486;-64
2023/07/22 01:54:59;;;;;;;15.65;7.88;;;;;;;;;;6209897;23;20012;-64
2023/07/22 01:57:25;;;;;;;15.60;8.75;;;;;;;;;;6211253;23;20067;-64
2023/07/22 01:59:51;;;;;;;17.98;9.27;;;;;;;;;;6212057;23;20079;-64
2023/07/22 02:02:17;;;;;;;14.15;8.40;;;;;;;;;;6212368;23;20397;-64
2023/07/22 02:04:43;;;;;;;16.02;8.38;;;;;;;;;;6212227;23;20020;-64
2023/07/22 02:07:09;;;;;;;15.77;9.02;;;;;;;;;;6211830;23;20044;-64
2023/07/22 02:09:36;;;;;;;15.20;8.90;;;;;;;;;;6212557;23;20394;-64
2023/07/22 02:12:02;;;;;;;19.42;8.45;;;;;;;;;;6212299;23;20455;-64
2023/07/22 02:14:28;;;;;;;13.27;7.43;;;;;;;;;;6211815;23;20009;-64
2023/07/22 02:16:54;;;;;;;14.02;7.82;;;;;;;;;;6212041;23;20390;-64
2023/07/22 02:19:20;;;;;;;16.92;8.40;;;;;;;;;;6211911;23;20047;-64
2023/07/22 02:21:47;;;;;;;15.85;7.53;;;;;;;;;;6211666;23;20490;-64
2023/07/22 02:24:15;;;;;;;14.18;7.85;;;;;;;;;;6212175;23;20009;-64
2023/07/22 02:26:40;;;;;;;14.52;7.88;;;;;;;;;;6212284;23;20019;-64
2023/07/22 02:29:07;;;;;;;14.48;7.07;;;;;;;;;;6211674;23;20013;-64
2023/07/22 02:31:33;;;;;;;15.93;8.18;;;;;;;;;;6211844;23;20016;-64
2023/07/22 02:33:59;;;;;;;16.55;7.93;;;;;;;;;;6212254;23;20034;-64
2023/07/22 02:36:25;;;;;;;16.58;8.95;;;;;;;;;;6211075;23;20008;-64
2023/07/22 02:38:51;;;;;;;16.60;7.90;;;;;;;;;;6211975;23;20084;-64
2023/07/22 02:41:18;;;;;;;14.30;7.68;;;;;;;;;;6212143;23;20036;-64
2023/07/22 02:43:44;;;;;;;15.20;7.65;;;;;;;;;;6211352;23;20095;-64
2023/07/22 02:46:10;;;;;;;13.07;7.68;;;;;;;;;;6211717;23;20063;-64
2023/07/22 02:48:36;;;;;;;12.90;7.80;;;;;;;;;;6212053;23;20020;-64
2023/07/22 02:51:06;;;;;;;18.17;8.88;;;;;;;;;;6211375;23;20069;-64
2023/07/22 02:53:33;;;;;;;14.18;8.50;;;;;;;;;;6211735;23;20025;-64
2023/07/22 02:55:59;;;;;;;17.27;8.35;;;;;;;;;;6211839;23;20088;-64
2023/07/22 02:58:25;;;;;;;13.02;8.20;;;;;;;;;;6211363;23;20013;-64
2023/07/22 03:00:51;;;;;;;15.45;8.27;;;;;;;;;;6211452;23;20094;-64
2023/07/22 03:03:18;;;;;;;16.13;8.38;;;;;;;;;;6211796;23;20566;-64
2023/07/22 03:05:45;;;;;;;17.75;9.18;;;;;;;;;;6211161;23;20052;-64
2023/07/22 03:08:11;;;;;;;16.80;8.32;;;;;;;;;;6211218;23;20017;-64
2023/07/22 03:10:37;;;;;;;16.60;8.48;;;;;;;;;;6211740;23;20066;-64
2023/07/22 03:13:03;;;;;;;15.73;7.72;;;;;;;;;;6211293;23;20012;-64
2023/07/22 03:15:29;;;;;;;14.32;8.05;;;;;;;;;;6211383;23;20551;-64
2023/07/22 03:17:56;;;;;;;14.95;8.30;;;;;;;;;;6211282;23;20016;-64
2023/07/22 03:20:24;;;;;;;16.70;7.90;;;;;;;;;;6211227;23;20012;-64
2023/07/22 03:22:50;;;;;;;18.85;9.40;;;;;;;;;;6210925;23;20020;-64
2023/07/22 03:25:16;;;;;;;14.82;8.35;;;;;;;;;;6211468;23;20081;-64
2023/07/22 03:27:43;;;;;;;14.80;8.13;;;;;;;;;;6211128;23;20507;-64
2023/07/22 03:30:11;;;;;;;15.57;8.52;;;;;;;;;;6211290;23;20020;-64
2023/07/22 03:32:37;;;;;;;16.48;8.85;;;;;;;;;;6211259;23;20035;-64
2023/07/22 03:35:03;;;;;;;18.52;9.40;;;;;;;;;;6210525;23;20008;-64
2023/07/22 03:37:30;;;;;;;18.80;9.18;;;;;;;;;;6211025;23;20249;-64
2023/07/22 03:39:56;;;;;;;19.00;9.55;;;;;;;;;;6211455;23;20103;-64
2023/07/22 03:42:22;;;;;;;17.73;9.07;;;;;;;;;;6210836;23;20015;-64
2023/07/22 03:44:48;;;;;;;18.40;9.73;;;;;;;;;;6211359;23;20012;-64
2023/07/22 03:47:13;;;;;;;16.77;9.55;;;;;;;;;;6211352;23;20048;-64
2023/07/22 03:49:39;;;;;;;18.08;8.70;;;;;;;;;;6210712;23;20082;-64
2023/07/22 03:52:06;;;;;;;17.80;9.43;;;;;;;;;;6210965;23;20047;-64
2023/07/22 03:54:32;;;;;;;17.05;8.75;;;;;;;;;;6211113;23;20013;-64
2023/07/22 03:56:58;;;;;;;18.55;9.98;;;;;;;;;;6210806;23;20044;-64
2023/07/22 03:59:24;;;;;;;16.80;9.48;;;;;;;;;;6211194;23;20020;-64
2023/07/22 04:01:50;;;;;;;17.40;9.95;;;;;;;;;;6211217;23;20008;-64
2023/07/22 04:04:16;;;;;;;20.27;10.77;;;;;;;;;;6210760;23;20012;-64
2023/07/22 04:06:41;;;;;;;17.35;9.63;;;;;;;;;;6211168;23;20484;-64
2023/07/22 04:09:08;;;;;;;20.50;10.52;;;;;;;;;;6211150;23;20458;-64
2023/07/22 04:11:34;;;;;;;18.35;9.35;;;;;;;;;;6211263;23;20013;-64
2023/07/22 04:14:00;;;;;;;18.58;10.27;;;;;;;;;;6210619;23;20013;-64
2023/07/22 04:16:26;;;;;;;21.60;10.48;;;;;;;;;;6210778;23;20012;-64
2023/07/22 04:18:52;;;;;;;20.58;10.48;;;;;;;;;;6211142;23;20178;-64
2023/07/22 04:21:18;;;;;;;21.60;10.25;;;;;;;;;;6210447;23;20210;-64
2023/07/22 04:23:44;;;;;;;17.85;9.77;;;;;;;;;;6210921;23;20082;-64
2023/07/22 04:26:11;;;;;;;18.58;9.88;;;;;;;;;;6210950;23;20079;-64
2023/07/22 04:28:37;;;;;;;17.80;10.02;;;;;;;;;;6210546;23;20024;-64
2023/07/22 04:31:04;;;;;;;19.25;9.40;;;;;;;;;;6210864;23;20023;-64
2023/07/22 04:33:30;;;;;;;17.58;9.23;;;;;;;;;;6210580;23;20027;-64
2023/07/22 04:35:59;;;;;;;18.15;9.88;;;;;;;;;;6210092;23;20023;-64
2023/07/22 04:38:25;;;;;;;18.75;9.88;;;;;;;;;;6210774;23;20023;-64
2023/07/22 04:40:51;;;;;;;17.75;9.93;;;;;;;;;;6211069;23;20039;-64
2023/07/22 04:43:17;;;;;;;19.02;9.80;;;;;;;;;;6210066;23;20012;-64
2023/07/22 04:45:47;;;;;;;22.30;9.40;;;;;;;;;;6210809;23;20024;-64
2023/07/22 04:48:14;;;;;;;18.23;9.75;;;;;;;;;;6211219;23;20066;-64
2023/07/22 04:50:40;;;;;;;15.40;9.15;;;;;;;;;;6210697;23;20019;-64
2023/07/22 04:53:07;;;;;;;18.90;9.93;;;;;;;;;;6210692;23;20013;-64
2023/07/22 04:55:33;;;;;;;16.52;8.93;;;;;;;;;;6210823;23;20032;-64
2023/07/22 04:57:59;;;;;;;17.40;9.68;;;;;;;;;;6210423;23;20009;-64
2023/07/22 05:00:25;;;;;;;17.48;10.20;;;;;;;;;;6210999;23;20009;-64
2023/07/22 05:02:52;;;;;;;16.85;9.55;;;;;;;;;;6210784;23;20032;-64
2023/07/22 05:05:18;;;;;;;17.77;10.52;;;;;;;;;;6210364;23;20099;-64
2023/07/22 05:07:45;;;;;;;15.85;9.73;;;;;;;;;;6211271;23;20349;-64
2023/07/22 05:10:12;;;;;;;16.20;9.30;;;;;;;;;;6210899;23;20344;-64
2023/07/22 05:12:38;;;;;;;16.80;9.70;;;;;;;;;;6210096;23;20066;-64
2023/07/22 05:15:05;;;;;;;17.42;9.73;;;;;;;;;;6210226;23;20020;-64
2023/07/22 05:17:31;;;;;;;18.52;9.82;;;;;;;;;;6210735;23;20009;-64
2023/07/22 05:19:58;;;;;;;15.93;9.38;;;;;;;;;;6210268;23;20374;-64
2023/07/22 05:22:24;;;;;;;17.50;9.48;;;;;;;;;;6210671;23;20009;-64
2023/07/22 05:24:50;;;;;;;16.77;10.27;;;;;;;;;;6210928;23;20064;-64
2023/07/22 05:27:17;;;;;;;17.10;9.50;;;;;;;;;;6210291;23;20317;-64
2023/07/22 05:29:43;;;;;;;16.02;9.35;;;;;;;;;;6210964;23;20103;-64
2023/07/22 05:32:09;;;;;;;17.70;10.48;;;;;;;;;;6212106;23;20399;-64
2023/07/22 05:34:35;;;;;;;16.60;9.43;;;;;;;;;;6211651;23;20013;-64
2023/07/22 05:37:01;;;;;;;16.92;9.50;;;;;;;;;;6212149;23;20028;-64
2023/07/22 05:39:26;;;;;;;19.08;10.23;;;;;;;;;;6212751;23;20083;-64
2023/07/22 05:41:53;;;;;;;16.70;9.45;;;;;;;;;;6212118;23;20623;-64
2023/07/22 05:44:18;;;;;;;17.65;10.27;;;;;;;;;;6212779;23;20032;-64
2023/07/22 05:46:44;;;;;;;20.60;10.38;;;;;;;;;;6212241;23;20009;-64
2023/07/22 05:49:10;;;;;;;22.50;11.00;;;;;;;;;;6212059;23;20020;-64
2023/07/22 05:51:37;;;;;;;17.67;9.90;;;;;;;;;;6212436;23;20013;-64
2023/07/22 05:54:03;;;;;;;20.35;10.85;;;;;;;;;;6212432;23;20016;-64
2023/07/22 05:56:29;;;;;;;18.48;9.75;;;;;;;;;;6212209;23;20016;-64
2023/07/22 05:58:55;;;;;;;20.85;11.00;;;;;;;;;;6212431;23;20051;-64
2023/07/22 06:01:21;;;;;;;21.10;11.18;;;;;;;;;;6212608;23;20012;-64
2023/07/22 06:03:47;;;;;;;18.25;10.57;;;;;;;;;;6211869;23;20043;-64
2023/07/22 06:06:13;;;;;;;19.63;10.88;;;;;;;;;;6212468;23;20016;-64
2023/07/22 06:08:39;;;;;;;19.73;10.70;;;;;;;;;;6212470;23;20510;-64
2023/07/22 06:11:05;;;;;;;18.55;10.73;;;;;;;;;;6211861;23;20013;-64
2023/07/22 06:13:31;;;;;;;20.88;10.57;;;;;;;;;;6212340;23;20016;-64
2023/07/22 06:15:57;;;;;;;17.08;10.80;;;;;;;;;;6212092;23;20016;-64
2023/07/22 06:18:23;;;;;;;22.92;11.00;;;;;;;;;;6211791;23;20317;-64
2023/07/22 06:20:49;;;;;;;19.48;11.27;;;;;;;;;;6212635;23;20013;-64
2023/07/22 06:23:15;;;;;;;18.02;9.98;;;;;;;;;;6212165;23;20084;-64
2023/07/22 06:25:41;;;;;;;17.77;10.27;;;;;;;;;;6211693;23;20466;-64
2023/07/22 06:28:09;;;;;;;19.95;11.57;;;;;;;;;;6212327;23;20105;-64
2023/07/22 06:30:35;;;;;;;21.95;11.43;;;;;;;;;;6212132;23;20321;-64
2023/07/22 06:33:01;;;;;;;19.10;11.00;;;;;;;;;;6211690;23;20075;-64
2023/07/22 06:35:27;;;;;;;17.80;11.25;;;;;;;;;;6185201;23;20443;-64
2023/07/22 06:37:53;;;;;;;21.75;11.38;;;;;;;;;;6212111;23;20052;-64
2023/07/22 06:40:19;;;;;;;19.38;10.13;;;;;;;;;;6211891;23;20479;-64
2023/07/22 06:42:45;;;;;;;20.90;12.02;;;;;;;;;;6212011;23;20008;-64
2023/07/22 06:45:11;;;;;;;22.02;11.95;;;;;;;;;;6212062;23;20443;-64
2023/07/22 06:47:37;;;;;;;22.10;11.38;;;;;;;;;;6211642;23;20012;-64
2023/07/22 06:50:04;;;;;;;19.58;11.73;;;;;;;;;;6211881;23;20476;-64
2023/07/22 06:52:30;;;;;;;18.13;10.73;;;;;;;;;;6212143;23;20021;-64
2023/07/22 06:54:56;;;;;;;20.30;11.70;;;;;;;;;;6211095;23;20016;-64
2023/07/22 06:57:22;;;;;;;19.83;10.95;;;;;;;;;;6185270;23;20017;-64
2023/07/22 06:59:50;;;;;;;21.08;11.70;;;;;;;;;;6211902;23;20383;-64
2023/07/22 07:02:16;;;;;;;18.77;11.38;;;;;;;;;;6211462;23;20008;-64
2023/07/22 07:04:42;;;;;;;20.90;11.88;;;;;;;;;;6211700;23;20086;-64
2023/07/22 07:07:08;;;;;;;22.52;11.77;;;;;;;;;;6211900;23;20031;-64
2023/07/22 07:09:35;;;;;;;21.00;12.02;;;;;;;;;;6184851;23;20013;-64
2023/07/22 07:12:01;;;;;;;21.90;12.70;;;;;;;;;;6211410;23;20021;-64
2023/07/22 07:14:27;;;;;;;20.35;11.88;;;;;;;;;;6211786;23;20012;-64
2023/07/22 07:16:53;;;;;;;19.88;11.48;;;;;;;;;;6211089;23;20063;-64
2023/07/22 07:19:20;;;;;;;17.80;11.40;;;;;;;;;;6211546;23;20333;-64
2023/07/22 07:21:46;;;;;;;17.42;11.23;;;;;;;;;;6211486;23;20023;-64
2023/07/22 07:24:12;;;;;;;20.45;11.18;;;;;;;;;;6211099;23;20008;-64
2023/07/22 07:26:38;;;;;;;20.17;11.55;;;;;;;;;;6211904;23;20015;-64
2023/07/22 07:29:04;;;;;;;18.20;12.05;;;;;;;;;;6211760;23;20013;-64
2023/07/22 07:31:30;;;;;;;19.58;11.55;;;;;;;;;;6211684;23;20375;-64
2023/07/22 07:33:56;;;;;;;21.48;12.80;;;;;;;;;;6211346;23;20041;-64
2023/07/22 07:36:22;;;;;;;20.90;11.43;;;;;;;;;;6211022;23;20025;-64
2023/07/22 07:38:48;;;;;;;20.20;12.10;;;;;;;;;;6211540;23;20071;-64
2023/07/22 07:41:14;;;;;;;20.60;12.10;;;;;;;;;;6210666;23;20063;-64
2023/07/22 07:43:43;;;;;;;19.85;11.68;;;;;;;;;;6211309;23;20013;-64
2023/07/22 07:46:13;;;;;;;21.42;12.15;;;;;;;;;;6211026;23;20024;-64
2023/07/22 07:48:39;;;;;;;20.05;11.80;;;;;;;;;;6210979;23;20092;-64
2023/07/22 07:51:05;;;;;;;20.67;11.45;;;;;;;;;;6211466;23;20059;-64
2023/07/22 07:53:31;;;;;;;20.52;11.95;;;;;;;;;;6211222;23;20016;-64
2023/07/22 07:55:57;;;;;;;23.55;12.60;;;;;;;;;;6210191;23;20016;-64
2023/07/22 07:58:23;;;;;;;19.77;11.50;;;;;;;;;;6211331;23;20024;-64
2023/07/22 08:00:49;;;;;;;20.92;12.32;;;;;;;;;;6211235;23;20143;-64
2023/07/22 08:03:15;;;;;;;22.15;12.20;;;;;;;;;;6211057;23;20421;-64
2023/07/22 08:05:41;;;;;;;21.73;12.18;;;;;;;;;;6210723;23;20016;-64
2023/07/22 08:08:07;;;;;;;21.17;12.60;;;;;;;;;;6211270;23;20018;-64
2023/07/22 08:10:33;;;;;;;21.52;11.38;;;;;;;;;;6210704;23;20324;-64
2023/07/22 08:12:59;;;;;;;22.05;12.65;;;;;;;;;;6211029;23;20076;-64
2023/07/22 08:15:25;;;;;;;21.23;12.25;;;;;;;;;;6211109;23;20012;-64
2023/07/22 08:17:51;;;;;;;22.15;12.95;;;;;;;;;;6210804;23;20528;-64
2023/07/22 08:20:17;;;;;;;20.65;11.55;;;;;;;;;;6211049;23;20032;-64
2023/07/22 08:22:43;;;;;;;17.52;11.13;;;;;;;;;;6210981;23;20151;-64
2023/07/22 08:25:09;;;;;;;19.77;11.15;;;;;;;;;;6210163;23;20020;-64
2023/07/22 08:27:35;;;;;;;17.20;11.23;;;;;;;;;;6211075;23;20112;-64
2023/07/22 08:30:01;;;;;;;16.23;10.40;;;;;;;;;;6211274;23;20016;-65
2023/07/22 08:32:27;;;;;;;19.60;11.35;;;;;;;;;;6210425;23;20459;-65
2023/07/22 08:34:53;;;;;;;20.80;11.55;;;;;;;;;;6210914;23;20098;-65
2023/07/22 08:37:19;;;;;;;19.75;11.70;;;;;;;;;;6210425;23;20020;-64
2023/07/22 08:39:45;;;;;;;17.52;11.38;;;;;;;;;;6210500;23;20013;-64
2023/07/22 08:42:12;;;;;;;19.38;11.30;;;;;;;;;;6210605;23;20019;-64
2023/07/22 08:44:38;;;;;;;18.77;11.75;;;;;;;;;;6183961;23;20016;-64
2023/07/22 08:47:05;;;;;;;17.00;10.05;;;;;;;;;;6210274;23;20189;-64
2023/07/22 08:49:31;;;;;;;19.88;11.45;;;;;;;;;;6210944;23;20016;-64
2023/07/22 08:51:58;;;;;;;19.00;10.02;;;;;;;;;;6183743;23;20023;-64
2023/07/22 08:54:24;;;;;;;17.67;10.77;;;;;;;;;;6210248;23;20012;-64
2023/07/22 08:56:51;;;;;;;18.05;9.63;;;;;;;;;;6210803;23;20017;-64
2023/07/22 08:59:20;;;;;;;17.80;10.23;;;;;;;;;;6210946;23;20017;-64
2023/07/22 09:01:48;;;;;;;17.35;10.48;;;;;;;;;;6210328;23;20443;-64
2023/07/22 09:04:14;;;;;;;17.95;11.32;;;;;;;;;;6210822;23;20012;-64
2023/07/22 09:06:42;;;;;;;19.40;11.57;;;;;;;;;;6183607;23;20050;-64
2023/07/22 09:09:08;;;;;;;16.58;10.32;;;;;;;;;;6210592;23;20017;-64
2023/07/22 09:11:35;;;;;;;19.52;11.25;;;;;;;;;;6184211;23;20013;-64
2023/07/22 09:14:02;;;;;;;18.90;10.13;;;;;;;;;;6210898;23;20439;-64
2023/07/22 09:16:29;;;;;;;16.25;9.20;;;;;;;;;;6210210;23;20313;-64
2023/07/22 09:18:56;;;;;;;16.35;9.73;;;;;;;;;;6210801;23;20012;-64
2023/07/22 09:21:22;;;;;;;17.80;8.95;;;;;;;;;;6210596;23;20023;-64
2023/07/22 09:23:48;;;;;;;15.32;8.50;;;;;;;;;;6210196;23;20456;-64
2023/07/22 09:26:18;;;;;;;11.68;7.03;;;;;;;;;;6210522;23;20023;-64
2023/07/22 09:28:59;;;;;;;8.93;5.10;;;;;;;;;;6210620;23;20163;-64
2023/07/22 09:31:28;;;;;;;8.35;5.20;;;;;;;;;;6210188;23;20444;-64
2023/07/22 09:33:54;;;;;;;7.50;5.28;;;;;;;;;;6210411;23;20012;-64
2023/07/22 09:36:20;;;;;;;8.68;4.20;;;;;;;;;;6210187;23;20027;-64
2023/07/22 09:38:58;;;;;;;6.00;4.07;;;;;;;;;;6210157;23;20009;-64
2023/07/22 09:41:28;;;;;;;6.82;3.63;;;;;;;;;;6210532;23;20085;-64
2023/07/22 09:43:54;;;;;;;6.05;3.92;;;;;;;;;;6210760;23;20063;-64
2023/07/22 09:46:20;;;;;;;7.18;3.28;;;;;;;;;;6209952;23;20290;-64
2023/07/22 09:48:46;;;;;;;5.22;3.05;;;;;;;;;;6210647;23;20091;-64
2023/07/22 09:51:14;;;;;;;4.07;2.78;;;;;;;;;;6210487;23;20020;-64
2023/07/22 09:53:44;;;;;;;7.95;3.15;;;;;;;;;;6210241;23;20058;-64
2023/07/22 09:56:10;;;;;;;5.18;3.00;;;;;;;;;;6210464;23;20332;-64
2023/07/22 09:58:37;;;;;;;5.88;3.22;;;;;;;;;;6183714;23;20020;-64
2023/07/22 10:01:03;;;;;;;4.88;3.50;;;;;;;;;;6209997;23;20017;-64
2023/07/22 10:03:30;;;;;;;5.07;3.33;;;;;;;;;;6210497;23;20404;-64
2023/07/22 10:05:58;;;;;;;6.82;3.40;;;;;;;;;;6183727;23;20062;-64
2023/07/22 10:08:24;;;;;;;7.75;4.03;;;;;;;;;;6209968;23;20020;-64
2023/07/22 10:10:53;;;;;;;5.57;4.00;;;;;;;;;;6210602;23;20513;-64
2023/07/22 10:13:20;;;;;;;5.50;3.70;;;;;;;;;;6210470;23;20474;-64
2023/07/22 10:15:46;;;;;;;9.13;4.97;;;;;;;;;;6209997;23;20013;-64
2023/07/22 10:18:12;;;;;;;6.25;4.70;;;;;;;;;;6211032;23;20008;-64
2023/07/22 10:20:39;;;;;;;8.45;6.03;;;;;;;;;;6212559;23;20469;-64
2023/07/22 10:23:06;;;;;;;8.40;5.57;;;;;;;;;;6211442;23;20017;-64
2023/07/22 10:25:32;;;;;;;10.50;6.50;;;;;;;;;;6212134;23;20017;-64
2023/07/22 10:27:58;;;;;;;10.30;6.30;;;;;;;;;;6212500;23;20436;-64
2023/07/22 10:30:24;;;;;;;9.98;6.60;;;;;;;;;;6211714;23;20017;-64
2023/07/22 10:32:52;;;;;;;12.68;7.75;;;;;;;;;;6212029;23;20506;-64
2023/07/22 10:35:18;;;;;;;10.68;7.45;;;;;;;;;;6211959;23;20017;-64
2023/07/22 10:37:47;;;;;;;10.60;6.97;;;;;;;;;;6211344;23;20029;-64
2023/07/22 10:40:18;;;;;;;11.45;6.97;;;;;;;;;;6212189;23;20380;-64
2023/07/22 10:42:51;;;;;;;10.90;6.88;;;;;;;;;;6212389;23;20066;-64
2023/07/22 10:45:24;;;;;;;12.25;7.82;;;;;;;;;;6211630;23;20394;-64
2023/07/22 10:48:00;;;;;;;11.95;7.95;;;;;;;;;;6212239;23;20026;-64
2023/07/22 10:50:38;;;;;;;12.20;7.68;;;;;;;;;;6212159;23;20016;-64
2023/07/22 10:53:04;;;;;;;12.88;7.85;;;;;;;;;;6211424;23;20055;-64
2023/07/22 10:55:30;;;;;;;16.17;8.05;;;;;;;;;;6211847;23;20414;-64
2023/07/22 10:58:03;;;;;;;14.32;7.72;;;;;;;;;;6212225;23;20013;-64
2023/07/22 11:00:30;;;;;;;10.18;7.00;;;;;;;;;;6211512;23;20012;-64
2023/07/22 11:03:12;;;;;;;11.00;7.45;;;;;;;;;;6211837;23;20013;-64
2023/07/22 11:05:49;;;;;;;12.50;7.95;;;;;;;;;;6211810;23;20017;-64
2023/07/22 11:08:15;;;;;;;15.02;8.52;;;;;;;;;;6211359;23;20027;-64
2023/07/22 11:10:53;;;;;;;22.45;9.98;;;;;;;;;;6212416;23;20500;-64
2023/07/22 11:13:26;;;;;;;16.23;9.70;;;;;;;;;;6211782;23;20034;-64
2023/07/22 11:15:52;;;;;;;16.02;9.77;;;;;;;;;;6211710;23;20009;-64
2023/07/22 11:18:19;;;;;;;14.02;8.93;;;;;;;;;;6212203;23;20067;-64
2023/07/22 11:20:44;;;;;;;16.55;10.57;;;;;;;;;;6212673;23;20031;-64
2023/07/22 11:23:11;;;;;;;14.93;9.25;;;;;;;;;;6212085;23;20016;-64
2023/07/22 11:25:37;;;;;;;13.40;8.98;;;;;;;;;;6211838;23;20375;-64
2023/07/22 11:28:04;;;;;;;17.30;9.23;;;;;;;;;;6211369;23;20020;-64
2023/07/22 11:30:30;;;;;;;14.27;8.60;;;;;;;;;;6184265;23;20020;-64
2023/07/22 11:32:58;;;;;;;13.60;8.95;;;;;;;;;;6211213;23;20455;-64
2023/07/22 11:35:24;;;;;;;14.32;8.95;;;;;;;;;;6211423;23;20008;-64
2023/07/22 11:38:00;;;;;;;12.10;8.27;;;;;;;;;;6211546;23;20013;-64
2023/07/22 11:40:33;;;;;;;11.32;7.53;;;;;;;;;;6185796;23;20059;-64
2023/07/22 11:42:59;;;;;;;12.52;8.00;;;;;;;;;;6211671;23;20021;-64
2023/07/22 11:45:25;;;;;;;11.85;8.20;;;;;;;;;;6185108;23;20211;-64
2023/07/22 11:47:51;;;;;;;11.75;8.07;;;;;;;;;;6211711;23;20012;-64
2023/07/22 11:50:17;;;;;;;10.18;7.65;;;;;;;;;;6212023;23;20023;-64
2023/07/22 11:52:43;;;;;;;14.60;8.20;;;;;;;;;;6211575;23;20020;-64
2023/07/22 11:55:09;;;;;;;12.07;8.13;;;;;;;;;;6211702;23;20056;-64
2023/07/22 11:57:35;;;;;;;12.52;9.02;;;;;;;;;;6211485;23;20084;-64
2023/07/22 12:00:01;;;;;;;10.82;8.45;;;;;;;;;;6211308;23;20040;-64
2023/07/22 12:02:34;;;;;;;15.18;9.68;;;;;;;;;;6211805;23;20013;-64
2023/07/22 12:05:01;;;;;;;13.95;8.93;;;;;;;;;;6212081;23;20039;-64
2023/07/22 12:07:28;;;;;;;13.25;10.13;;;;;;;;;;6211071;23;20063;-64
2023/07/22 12:09:55;;;;;;;11.30;9.10;;;;;;;;;;6212297;23;20066;-64
2023/07/22 12:12:21;;;;;;;13.32;9.15;;;;;;;;;;6211159;23;20016;-64
2023/07/22 12:14:47;;;;;;;13.02;9.35;;;;;;;;;;6211066;23;20012;-64
2023/07/22 12:17:13;;;;;;;13.25;9.43;;;;;;;;;;6211665;23;20021;-64
2023/07/22 12:19:39;;;;;;;13.18;10.15;;;;;;;;;;6211579;23;20091;-64
2023/07/22 12:22:05;;;;;;;14.18;10.27;;;;;;;;;;6211253;23;20009;-64
2023/07/22 12:24:31;;;;;;;15.60;11.60;;;;;;;;;;6211488;23;20031;-64
2023/07/22 12:26:57;;;;;;;13.02;10.63;;;;;;;;;;6211859;23;20323;-64
2023/07/22 12:29:23;;;;;;;15.05;11.10;;;;;;;;;;6211192;23;20083;-64
2023/07/22 12:31:49;;;;;;;12.43;9.85;;;;;;;;;;6185199;23;20095;-64
2023/07/22 12:34:15;;;;;;;14.93;11.75;;;;;;;;;;6211648;23;20020;-64
2023/07/22 12:36:41;;;;;;;16.67;12.10;;;;;;;;;;6184158;23;20079;-64
2023/07/22 12:39:07;;;;;;;14.35;12.43;;;;;;;;;;6211782;23;20096;-64
2023/07/22 12:41:33;;;;;;;16.08;11.80;;;;;;;;;;6211624;23;20381;-64
2023/07/22 12:43:59;;;;;;;18.02;12.00;;;;;;;;;;6211354;23;20012;-64
2023/07/22 12:46:25;;;;;;;19.85;14.05;;;;;;;;;;6211559;23;20501;-64
2023/07/22 12:48:51;;;;;;;19.80;13.13;;;;;;;;;;6211579;23;20286;-64
2023/07/22 12:51:17;;;;;;;20.83;14.88;;;;;;;;;;6211791;23;20016;-64
2023/07/22 12:53:43;;;;;;;13.45;10.82;;;;;;;;;;6211407;23;20080;-64
2023/07/22 12:56:09;;;;;;;13.68;11.02;;;;;;;;;;6211526;23;20017;-64
2023/07/22 12:58:35;;;;;;;10.40;7.88;;;;;;;;;;6184181;23;20431;-64
2023/07/22 13:01:01;;;;;;;9.05;6.60;;;;;;;;;;6211232;23;20071;-64
2023/07/22 13:03:26;;;;;;;7.97;6.10;;;;;;;;;;6211101;23;20020;-64
2023/07/22 13:05:52;;;;;;;7.90;5.85;;;;;;;;;;6210660;23;20054;-64
2023/07/22 13:08:18;;;;;;;7.13;5.10;;;;;;;;;;6211043;23;20360;-64
2023/07/22 13:10:47;;;;;;;7.28;4.40;;;;;;;;;;6210831;23;20016;-64
2023/07/22 13:13:12;;;;;;;5.97;4.38;;;;;;;;;;6210390;23;20084;-64
2023/07/22 13:15:39;;;;;;;8.65;4.63;;;;;;;;;;6210987;23;20486;-64
2023/07/22 13:18:05;;;;;;;9.50;4.60;;;;;;;;;;6211394;23;20008;-64
2023/07/22 13:20:31;;;;;;;7.75;4.25;;;;;;;;;;6210691;23;20043;-64
2023/07/22 13:22:57;;;;;;;5.50;3.92;;;;;;;;;;6211025;23;20035;-64
2023/07/22 13:25:23;;;;;;;8.70;4.93;;;;;;;;;;6211071;23;20456;-64
2023/07/22 13:27:49;;;;;;;6.20;4.25;;;;;;;;;;6209152;23;20020;-64
2023/07/22 13:30:15;;;;;;;6.28;4.55;;;;;;;;;;6210883;23;20317;-64
2023/07/22 13:32:41;;;;;;;6.43;4.72;;;;;;;;;;6210670;23;20013;-64
2023/07/22 13:35:09;;;;;;;7.82;5.15;;;;;;;;;;6210577;23;20017;-64
2023/07/22 13:37:35;;;;;;;9.05;6.07;;;;;;;;;;6210603;23;20027;-64
2023/07/22 13:40:01;;;;;;;8.27;6.07;;;;;;;;;;6210810;23;20044;-64
2023/07/22 13:42:27;;;;;;;9.82;7.28;;;;;;;;;;6209921;23;20019;-65
2023/07/22 13:44:53;;;;;;;9.50;6.50;;;;;;;;;;6210872;23;20029;-64
2023/07/22 13:47:19;;;;;;;9.32;7.00;;;;;;;;;;6211084;23;20039;-65
2023/07/22 13:49:45;;;;;;;9.27;7.50;;;;;;;;;;6210501;23;20020;-65
2023/07/22 13:52:11;;;;;;;8.43;7.50;;;;;;;;;;6211110;23;20440;-64
2023/07/22 13:54:37;;;;;;;9.15;7.18;;;;;;;;;;6212474;23;20016;-64
2023/07/22 13:57:03;;;;;;;10.25;7.40;;;;;;;;;;6210979;23;20344;-64
2023/07/22 13:59:29;;;;;;;12.23;7.85;;;;;;;;;;6212775;23;20327;-64
2023/07/22 14:01:55;;;;;;;12.48;8.68;;;;;;;;;;6212598;23;20015;-64
2023/07/22 14:04:21;;;;;;;12.18;8.63;;;;;;;;;;6212092;23;20023;-64
2023/07/22 14:06:47;;;;;;;10.15;7.32;;;;;;;;;;6212291;23;20070;-64
2023/07/22 14:09:13;;;;;;;10.15;7.65;;;;;;;;;;6212576;23;20108;-64
2023/07/22 14:11:38;;;;;;;12.15;8.95;;;;;;;;;;6211514;23;20095;-64
2023/07/22 14:14:04;;;;;;;11.77;8.50;;;;;;;;;;6212072;23;20016;-64
2023/07/22 14:16:31;;;;;;;14.73;8.85;;;;;;;;;;6212499;23;20261;-64
2023/07/22 14:18:57;;;;;;;11.32;9.13;;;;;;;;;;6211685;23;20519;-64
2023/07/22 14:21:23;;;;;;;9.20;7.93;;;;;;;;;;6212442;23;20051;-64
2023/07/22 14:23:49;;;;;;;15.43;8.40;;;;;;;;;;6212226;23;20422;-64